createdAt,value
2018-06-25T00:00:18.083Z,12.10
2018-06-25T00:00:51.932Z,12.00
2018-06-25T00:01:25.840Z,12.00
2018-06-25T00:01:59.720Z,12.00
2018-06-25T00:02:33.938Z,12.00
2018-06-25T00:03:07.827Z,12.00
2018-06-25T00:03:41.725Z,12.00
2018-06-25T00:04:15.947Z,12.00
2018-06-25T00:04:49.817Z,12.00
2018-06-25T00:05:23.725Z,12.00
2018-06-25T00:05:57.633Z,12.00
2018-06-25T00:06:31.862Z,12.00
2018-06-25T00:07:05.808Z,12.00
2018-06-25T00:07:39.686Z,12.00
2018-06-25T00:08:13.905Z,12.00
2018-06-25T00:08:47.797Z,12.00
2018-06-25T00:09:21.622Z,12.00
2018-06-25T00:09:55.504Z,12.00
2018-06-25T00:10:29.770Z,12.00
2018-06-25T00:11:04.030Z,12.00
2018-06-25T00:11:37.910Z,11.90
2018-06-25T00:12:12.157Z,12.00
2018-06-25T00:12:46.029Z,11.90
2018-06-25T00:13:19.912Z,11.90
2018-06-25T00:13:53.770Z,11.90
2018-06-25T00:14:27.693Z,11.90
2018-06-25T00:15:01.615Z,11.90
2018-06-25T00:15:36.147Z,11.90
2018-06-25T00:16:10.038Z,11.90
2018-06-25T00:16:43.905Z,11.90
2018-06-25T00:17:17.777Z,11.90
2018-06-25T00:17:51.957Z,11.90
2018-06-25T00:18:25.857Z,11.90
2018-06-25T00:18:59.770Z,11.90
2018-06-25T00:19:33.663Z,11.90
2018-06-25T00:20:07.520Z,11.90
2018-06-25T00:20:41.443Z,11.90
2018-06-25T00:21:15.649Z,11.80
2018-06-25T00:21:49.655Z,11.80
2018-06-25T00:22:23.546Z,11.80
2018-06-25T00:22:57.444Z,11.80
2018-06-25T00:23:31.716Z,11.80
2018-06-25T00:24:06.442Z,11.80
2018-06-25T00:24:40.359Z,11.80
2018-06-25T00:25:14.265Z,11.80
2018-06-25T00:25:48.253Z,11.80
2018-06-25T00:26:22.497Z,11.80
2018-06-25T00:26:56.754Z,11.80
2018-06-25T00:27:30.616Z,11.80
2018-06-25T00:28:04.688Z,11.80
2018-06-25T00:28:38.820Z,11.80
2018-06-25T00:29:13.054Z,11.80
2018-06-25T00:29:46.939Z,11.80
2018-06-25T00:30:20.777Z,11.80
2018-06-25T00:30:54.808Z,11.80
2018-06-25T00:31:29.011Z,11.80
2018-06-25T00:32:03.494Z,11.70
2018-06-25T00:32:37.646Z,11.70
2018-06-25T00:33:11.542Z,11.70
2018-06-25T00:33:45.846Z,11.80
2018-06-25T00:34:19.761Z,11.70
2018-06-25T00:34:53.655Z,11.70
2018-06-25T00:35:27.530Z,11.70
2018-06-25T00:36:01.438Z,11.70
2018-06-25T00:36:35.322Z,11.80
2018-06-25T00:37:10.238Z,11.70
2018-06-25T00:37:44.127Z,11.70
2018-06-25T00:38:18.258Z,11.70
2018-06-25T00:38:52.197Z,11.70
2018-06-25T00:39:26.086Z,11.70
2018-06-25T00:39:59.979Z,11.70
2018-06-25T00:40:34.165Z,11.70
2018-06-25T00:41:08.344Z,11.70
2018-06-25T00:41:42.859Z,11.70
2018-06-25T00:42:17.046Z,11.70
2018-06-25T00:42:51.010Z,11.70
2018-06-25T00:43:24.883Z,11.70
2018-06-25T00:43:59.067Z,11.70
2018-06-25T00:44:32.955Z,11.70
2018-06-25T00:45:07.441Z,11.70
2018-06-25T00:45:41.638Z,11.70
2018-06-25T00:46:15.886Z,11.70
2018-06-25T00:46:49.780Z,11.60
2018-06-25T00:47:23.676Z,11.60
2018-06-25T00:47:58.297Z,11.60
2018-06-25T00:48:32.193Z,11.70
2018-06-25T00:49:06.484Z,11.70
2018-06-25T00:49:40.396Z,11.70
2018-06-25T00:50:14.629Z,11.70
2018-06-25T00:50:48.502Z,11.70
2018-06-25T00:51:22.728Z,11.60
2018-06-25T00:51:56.604Z,11.60
2018-06-25T00:52:30.482Z,11.60
2018-06-25T00:53:04.373Z,11.60
2018-06-25T00:53:38.239Z,11.60
2018-06-25T00:54:12.140Z,11.60
2018-06-25T00:54:46.013Z,11.60
2018-06-25T00:55:19.929Z,11.60
2018-06-25T00:55:54.153Z,11.60
2018-06-25T00:56:28.098Z,11.60
2018-06-25T00:57:02.178Z,11.60
2018-06-25T00:57:36.063Z,11.60
2018-06-25T00:58:10.283Z,11.60
2018-06-25T00:58:55.680Z,11.60
2018-06-25T00:59:40.929Z,11.60
2018-06-25T01:00:15.093Z,11.60
2018-06-25T01:00:49.265Z,11.60
2018-06-25T01:01:23.474Z,11.60
2018-06-25T01:01:58.667Z,11.60
2018-06-25T01:02:32.830Z,11.60
2018-06-25T01:03:40.590Z,11.60
2018-06-25T01:04:15.053Z,11.60
2018-06-25T01:04:49.383Z,11.60
2018-06-25T01:05:23.516Z,11.60
2018-06-25T01:05:58.125Z,11.60
2018-06-25T01:06:32.209Z,11.60
2018-06-25T01:07:06.144Z,11.60
2018-06-25T01:07:40.042Z,11.60
2018-06-25T01:08:13.928Z,11.60
2018-06-25T01:08:47.824Z,11.60
2018-06-25T01:09:21.688Z,11.60
2018-06-25T01:09:55.612Z,11.60
2018-06-25T01:10:29.506Z,11.60
2018-06-25T01:11:03.405Z,11.60
2018-06-25T01:11:37.303Z,11.60
2018-06-25T01:12:11.200Z,11.60
2018-06-25T01:13:18.964Z,11.60
2018-06-25T01:13:53.557Z,11.60
2018-06-25T01:15:01.896Z,11.50
2018-06-25T01:15:35.791Z,11.50
2018-06-25T01:16:10.039Z,11.50
2018-06-25T01:16:44.639Z,11.50
2018-06-25T01:17:19.454Z,11.50
2018-06-25T01:17:53.319Z,11.50
2018-06-25T01:18:27.186Z,11.50
2018-06-25T01:19:01.112Z,11.50
2018-06-25T01:19:35.316Z,11.50
2018-06-25T01:20:09.166Z,11.50
2018-06-25T01:20:43.436Z,11.50
2018-06-25T01:21:17.332Z,11.50
2018-06-25T01:21:51.542Z,11.50
2018-06-25T01:22:25.466Z,11.50
2018-06-25T01:22:59.352Z,11.50
2018-06-25T01:23:33.555Z,11.50
2018-06-25T01:24:07.428Z,11.50
2018-06-25T01:24:41.657Z,11.50
2018-06-25T01:25:16.140Z,11.50
2018-06-25T01:25:50.318Z,11.50
2018-06-25T01:26:24.258Z,11.50
2018-06-25T01:26:58.538Z,11.50
2018-06-25T01:27:32.498Z,11.50
2018-06-25T01:28:06.681Z,11.50
2018-06-25T01:28:40.886Z,11.50
2018-06-25T01:29:14.800Z,11.50
2018-06-25T01:29:48.675Z,11.50
2018-06-25T01:30:22.826Z,11.50
2018-06-25T01:30:57.018Z,11.50
2018-06-25T01:31:30.942Z,11.50
2018-06-25T01:32:05.462Z,11.50
2018-06-25T01:32:39.380Z,11.50
2018-06-25T01:33:13.292Z,11.50
2018-06-25T01:33:47.176Z,11.50
2018-06-25T01:34:21.120Z,11.50
2018-06-25T01:34:55.274Z,11.50
2018-06-25T01:35:29.794Z,11.50
2018-06-25T01:36:04.332Z,11.50
2018-06-25T01:36:38.842Z,11.50
2018-06-25T01:37:12.788Z,11.50
2018-06-25T01:37:47.306Z,11.50
2018-06-25T01:38:21.552Z,11.50
2018-06-25T01:38:55.726Z,11.50
2018-06-25T01:39:29.878Z,11.50
2018-06-25T01:40:04.022Z,11.50
2018-06-25T01:40:38.228Z,11.50
2018-06-25T01:41:12.762Z,11.50
2018-06-25T01:41:46.968Z,11.50
2018-06-25T01:42:21.224Z,11.50
2018-06-25T01:42:55.450Z,11.50
2018-06-25T01:43:29.708Z,11.50
2018-06-25T01:44:03.886Z,11.50
2018-06-25T01:44:38.080Z,11.40
2018-06-25T01:45:12.589Z,11.40
2018-06-25T01:45:47.020Z,11.40
2018-06-25T01:46:21.223Z,11.50
2018-06-25T01:46:56.984Z,11.40
2018-06-25T01:47:31.178Z,11.40
2018-06-25T01:48:05.542Z,11.40
2018-06-25T01:48:40.054Z,11.40
2018-06-25T01:49:14.215Z,11.40
2018-06-25T01:49:48.380Z,11.40
2018-06-25T01:50:22.311Z,11.40
2018-06-25T01:50:56.834Z,11.40
2018-06-25T01:51:31.026Z,11.40
2018-06-25T01:52:04.983Z,11.40
2018-06-25T01:52:39.160Z,11.40
2018-06-25T01:53:13.387Z,11.40
2018-06-25T01:53:47.564Z,11.40
2018-06-25T01:54:21.796Z,11.40
2018-06-25T01:54:55.922Z,11.40
2018-06-25T01:55:30.444Z,11.40
2018-06-25T01:56:04.565Z,11.40
2018-06-25T01:56:39.049Z,11.40
2018-06-25T01:57:13.532Z,11.40
2018-06-25T01:57:47.956Z,11.40
2018-06-25T01:58:21.894Z,11.40
2018-06-25T01:58:56.145Z,11.40
2018-06-25T01:59:30.328Z,11.40
2018-06-25T02:00:04.601Z,11.40
2018-06-25T02:00:38.770Z,11.40
2018-06-25T02:01:13.308Z,11.40
2018-06-25T02:01:47.454Z,11.40
2018-06-25T02:02:21.659Z,11.40
2018-06-25T02:02:55.843Z,11.40
2018-06-25T02:03:30.332Z,11.40
2018-06-25T02:04:04.229Z,11.40
2018-06-25T02:04:38.413Z,11.40
2018-06-25T02:05:12.922Z,11.40
2018-06-25T02:05:47.103Z,11.40
2018-06-25T02:06:21.325Z,11.40
2018-06-25T02:06:55.866Z,11.40
2018-06-25T02:07:30.051Z,11.40
2018-06-25T02:08:04.197Z,11.40
2018-06-25T02:08:38.414Z,11.40
2018-06-25T02:09:13.200Z,11.40
2018-06-25T02:09:47.405Z,11.40
2018-06-25T02:10:21.942Z,11.40
2018-06-25T02:10:55.867Z,11.40
2018-06-25T02:11:30.013Z,11.40
2018-06-25T02:12:04.518Z,11.40
2018-06-25T02:12:38.469Z,11.40
2018-06-25T02:13:12.760Z,11.40
2018-06-25T02:13:46.683Z,11.40
2018-06-25T02:14:20.560Z,11.40
2018-06-25T02:14:54.503Z,11.40
2018-06-25T02:15:28.734Z,11.40
2018-06-25T02:16:02.946Z,11.40
2018-06-25T02:16:37.706Z,11.40
2018-06-25T02:17:46.079Z,11.30
2018-06-25T02:18:19.918Z,11.30
2018-06-25T02:18:54.480Z,11.30
2018-06-25T02:19:28.427Z,11.30
2018-06-25T02:20:02.681Z,11.30
2018-06-25T02:20:36.577Z,11.30
2018-06-25T02:21:10.755Z,11.30
2018-06-25T02:21:44.933Z,11.30
2018-06-25T02:22:19.156Z,11.30
2018-06-25T02:22:53.386Z,11.30
2018-06-25T02:23:27.741Z,11.30
2018-06-25T02:24:02.229Z,11.30
2018-06-25T02:24:36.765Z,11.30
2018-06-25T02:25:11.259Z,11.30
2018-06-25T02:25:45.181Z,11.30
2018-06-25T02:26:19.410Z,11.30
2018-06-25T02:26:53.611Z,11.30
2018-06-25T02:27:27.817Z,11.30
2018-06-25T02:28:01.759Z,11.30
2018-06-25T02:28:35.970Z,11.30
2018-06-25T02:29:10.465Z,11.30
2018-06-25T02:29:44.379Z,11.30
2018-06-25T02:30:18.582Z,11.30
2018-06-25T02:30:52.787Z,11.30
2018-06-25T02:31:27.329Z,11.30
2018-06-25T02:32:01.894Z,11.30
2018-06-25T02:32:35.781Z,11.30
2018-06-25T02:33:10.004Z,11.30
2018-06-25T02:33:44.511Z,11.30
2018-06-25T02:34:18.689Z,11.30
2018-06-25T02:34:52.858Z,11.30
2018-06-25T02:35:27.040Z,11.30
2018-06-25T02:36:01.242Z,11.30
2018-06-25T02:36:35.149Z,11.30
2018-06-25T02:37:09.713Z,11.30
2018-06-25T02:37:44.221Z,11.30
2018-06-25T02:38:18.422Z,11.30
2018-06-25T02:38:53.007Z,11.30
2018-06-25T02:39:27.170Z,11.30
2018-06-25T02:40:01.743Z,11.30
2018-06-25T02:40:36.340Z,11.30
2018-06-25T02:41:10.537Z,11.30
2018-06-25T02:41:44.738Z,11.30
2018-06-25T02:42:19.215Z,11.30
2018-06-25T02:42:53.403Z,11.30
2018-06-25T02:43:27.577Z,11.30
2018-06-25T02:44:01.806Z,11.30
2018-06-25T02:44:36.328Z,11.30
2018-06-25T02:45:10.512Z,11.30
2018-06-25T02:45:44.408Z,11.30
2018-06-25T02:46:18.843Z,11.30
2018-06-25T02:46:53.084Z,11.30
2018-06-25T02:47:27.239Z,11.30
2018-06-25T02:48:01.420Z,11.30
2018-06-25T02:48:35.557Z,11.30
2018-06-25T02:49:09.795Z,11.30
2018-06-25T02:49:43.687Z,11.30
2018-06-25T02:50:17.922Z,11.30
2018-06-25T02:50:55.197Z,11.30
2018-06-25T02:51:29.471Z,11.40
2018-06-25T02:52:03.725Z,11.40
2018-06-25T02:52:38.227Z,11.40
2018-06-25T02:53:12.179Z,11.40
2018-06-25T02:53:46.063Z,11.40
2018-06-25T02:54:20.226Z,11.40
2018-06-25T02:54:54.109Z,11.40
2018-06-25T02:55:27.965Z,11.40
2018-06-25T02:56:02.205Z,11.40
2018-06-25T02:56:36.083Z,11.40
2018-06-25T02:57:13.833Z,11.40
2018-06-25T02:57:47.733Z,11.40
2018-06-25T02:58:21.647Z,11.40
2018-06-25T02:58:55.845Z,11.40
2018-06-25T02:59:30.066Z,11.40
2018-06-25T03:00:04.299Z,11.40
2018-06-25T03:00:38.837Z,11.40
2018-06-25T03:01:13.287Z,11.40
2018-06-25T03:01:47.178Z,11.40
2018-06-25T03:02:21.624Z,11.50
2018-06-25T03:02:55.767Z,11.50
2018-06-25T03:03:29.695Z,11.50
2018-06-25T03:04:03.621Z,11.50
2018-06-25T03:04:37.801Z,11.50
2018-06-25T03:05:12.284Z,11.50
2018-06-25T03:05:46.864Z,11.50
2018-06-25T03:06:20.707Z,11.50
2018-06-25T03:07:28.139Z,11.50
2018-06-25T03:08:02.337Z,11.60
2018-06-25T03:08:36.553Z,11.60
2018-06-25T03:09:11.563Z,11.60
2018-06-25T03:09:45.797Z,11.60
2018-06-25T03:10:19.680Z,11.60
2018-06-25T03:10:53.595Z,11.70
2018-06-25T03:12:01.393Z,11.70
2018-06-25T03:12:35.275Z,11.70
2018-06-25T03:13:11.130Z,11.70
2018-06-25T03:13:45.027Z,11.70
2018-06-25T03:14:19.175Z,11.70
2018-06-25T03:14:53.087Z,11.70
2018-06-25T03:15:27.531Z,11.80
2018-06-25T03:16:01.780Z,11.80
2018-06-25T03:16:35.975Z,11.80
2018-06-25T03:17:09.871Z,11.80
2018-06-25T03:17:43.776Z,11.80
2018-06-25T03:18:17.708Z,11.90
2018-06-25T03:19:25.403Z,11.90
2018-06-25T03:20:32.885Z,12.00
2018-06-25T03:21:06.784Z,12.00
2018-06-25T03:21:40.675Z,12.00
2018-06-25T03:22:14.577Z,12.00
2018-06-25T03:22:48.503Z,12.10
2018-06-25T03:23:22.381Z,12.10
2018-06-25T03:23:56.302Z,12.10
2018-06-25T03:24:30.549Z,12.20
2018-06-25T03:25:04.443Z,12.20
2018-06-25T03:25:38.637Z,12.30
2018-06-25T03:26:12.501Z,12.30
2018-06-25T03:26:46.969Z,12.40
2018-06-25T03:27:21.195Z,12.40
2018-06-25T03:27:55.087Z,12.60
2018-06-25T03:28:28.967Z,12.60
2018-06-25T03:29:03.191Z,12.70
2018-06-25T03:29:37.435Z,12.80
2018-06-25T03:30:11.647Z,12.90
2018-06-25T03:30:45.545Z,12.90
2018-06-25T03:31:19.439Z,13.00
2018-06-25T03:31:53.339Z,13.10
2018-06-25T03:32:27.227Z,13.10
2018-06-25T03:33:01.125Z,13.20
2018-06-25T03:33:35.005Z,13.20
2018-06-25T03:34:08.883Z,13.30
2018-06-25T03:34:43.437Z,13.30
2018-06-25T03:35:17.307Z,13.30
2018-06-25T03:35:51.877Z,13.30
2018-06-25T03:36:25.766Z,13.40
2018-06-25T03:36:59.687Z,13.40
2018-06-25T03:37:33.931Z,13.50
2018-06-25T03:38:07.811Z,13.50
2018-06-25T03:38:41.706Z,13.60
2018-06-25T03:39:15.600Z,13.60
2018-06-25T03:39:49.499Z,13.70
2018-06-25T03:40:23.429Z,13.70
2018-06-25T03:40:57.355Z,13.70
2018-06-25T03:41:31.389Z,13.70
2018-06-25T03:42:05.790Z,13.70
2018-06-25T03:42:39.683Z,13.70
2018-06-25T03:43:13.556Z,13.70
2018-06-25T03:43:47.463Z,13.70
2018-06-25T03:44:21.327Z,13.70
2018-06-25T03:44:55.573Z,13.70
2018-06-25T03:45:29.487Z,13.70
2018-06-25T03:46:03.377Z,13.70
2018-06-25T03:46:37.588Z,13.70
2018-06-25T03:47:11.481Z,13.70
2018-06-25T03:47:45.444Z,13.70
2018-06-25T03:48:19.349Z,13.70
2018-06-25T03:48:53.601Z,13.70
2018-06-25T03:49:27.821Z,13.70
2018-06-25T03:50:02.079Z,13.70
2018-06-25T03:50:35.997Z,13.70
2018-06-25T03:51:10.269Z,13.70
2018-06-25T03:51:44.150Z,13.70
2018-06-25T03:52:18.113Z,13.70
2018-06-25T03:52:52.357Z,13.70
2018-06-25T03:53:26.265Z,13.70
2018-06-25T03:54:00.211Z,13.70
2018-06-25T03:54:34.068Z,13.70
2018-06-25T03:55:08.303Z,13.70
2018-06-25T03:55:42.539Z,13.70
2018-06-25T03:56:16.453Z,13.80
2018-06-25T03:56:50.371Z,13.80
2018-06-25T03:57:24.323Z,13.80
2018-06-25T03:57:58.607Z,13.80
2018-06-25T03:58:32.541Z,13.80
2018-06-25T03:59:06.859Z,13.80
2018-06-25T03:59:40.829Z,13.80
2018-06-25T04:00:15.099Z,13.90
2018-06-25T04:00:48.989Z,13.90
2018-06-25T04:01:22.940Z,13.90
2018-06-25T04:01:57.298Z,13.90
2018-06-25T04:02:31.256Z,13.90
2018-06-25T04:03:05.522Z,14.00
2018-06-25T04:03:39.604Z,14.00
2018-06-25T04:04:13.902Z,14.00
2018-06-25T04:04:47.837Z,14.00
2018-06-25T04:05:55.345Z,14.00
2018-06-25T04:06:29.371Z,14.10
2018-06-25T04:07:03.299Z,14.10
2018-06-25T04:08:11.123Z,14.10
2018-06-25T04:08:45.419Z,14.10
2018-06-25T04:09:19.695Z,14.10
2018-06-25T04:09:53.597Z,14.20
2018-06-25T04:10:27.514Z,14.20
2018-06-25T04:11:41.175Z,14.20
2018-06-25T04:12:15.080Z,14.30
2018-06-25T04:12:49.166Z,14.30
2018-06-25T04:13:23.375Z,14.30
2018-06-25T04:13:57.321Z,14.30
2018-06-25T04:14:31.359Z,14.30
2018-06-25T04:15:05.582Z,14.30
2018-06-25T04:15:39.874Z,14.40
2018-06-25T04:16:13.746Z,14.40
2018-06-25T04:16:48.011Z,14.40
2018-06-25T04:17:21.961Z,14.40
2018-06-25T04:17:56.232Z,14.40
2018-06-25T04:18:30.466Z,14.40
2018-06-25T04:19:05.289Z,14.40
2018-06-25T04:19:39.217Z,14.40
2018-06-25T04:20:13.797Z,14.40
2018-06-25T04:20:48.473Z,14.40
2018-06-25T04:21:22.497Z,14.40
2018-06-25T04:21:56.391Z,14.40
2018-06-25T04:22:30.323Z,14.50
2018-06-25T04:23:04.541Z,14.50
2018-06-25T04:23:38.444Z,14.50
2018-06-25T04:24:12.530Z,14.50
2018-06-25T04:24:46.484Z,14.50
2018-06-25T04:25:20.349Z,14.50
2018-06-25T04:25:54.575Z,14.50
2018-06-25T04:26:28.536Z,14.50
2018-06-25T04:27:02.414Z,14.50
2018-06-25T04:27:36.286Z,14.50
2018-06-25T04:28:10.172Z,14.50
2018-06-25T04:28:44.053Z,14.50
2018-06-25T04:29:17.992Z,14.50
2018-06-25T04:29:52.017Z,14.50
2018-06-25T04:30:26.620Z,14.50
2018-06-25T04:31:00.530Z,14.50
2018-06-25T04:31:34.792Z,14.50
2018-06-25T04:32:09.019Z,14.50
2018-06-25T04:32:42.899Z,14.50
2018-06-25T04:33:16.843Z,14.50
2018-06-25T04:33:50.751Z,14.50
2018-06-25T04:34:24.646Z,14.50
2018-06-25T04:34:58.490Z,14.50
2018-06-25T04:35:32.371Z,14.50
2018-06-25T04:36:06.583Z,14.60
2018-06-25T04:36:40.447Z,14.60
2018-06-25T04:37:14.529Z,14.60
2018-06-25T04:37:48.423Z,14.60
2018-06-25T04:38:22.373Z,14.60
2018-06-25T04:39:30.055Z,14.70
2018-06-25T04:40:04.321Z,14.70
2018-06-25T04:40:38.535Z,14.70
2018-06-25T04:41:13.016Z,14.70
2018-06-25T04:41:47.260Z,14.70
2018-06-25T04:42:21.150Z,14.70
2018-06-25T04:42:55.053Z,14.70
2018-06-25T04:43:28.941Z,14.60
2018-06-25T04:44:03.147Z,14.70
2018-06-25T04:44:37.017Z,14.70
2018-06-25T04:45:11.262Z,14.70
2018-06-25T04:45:45.508Z,14.70
2018-06-25T04:46:19.360Z,14.70
2018-06-25T04:46:53.585Z,14.70
2018-06-25T04:47:27.458Z,14.70
2018-06-25T04:48:02.006Z,14.80
2018-06-25T04:48:36.245Z,14.80
2018-06-25T04:49:10.142Z,14.80
2018-06-25T04:49:44.020Z,14.80
2018-06-25T04:50:18.294Z,14.80
2018-06-25T04:50:52.181Z,14.80
2018-06-25T04:51:26.063Z,14.80
2018-06-25T04:51:59.922Z,14.80
2018-06-25T04:52:33.778Z,14.80
2018-06-25T04:53:07.658Z,14.80
2018-06-25T04:53:42.165Z,14.90
2018-06-25T04:54:16.033Z,14.90
2018-06-25T04:55:24.102Z,14.90
2018-06-25T04:55:58.003Z,14.90
2018-06-25T04:56:32.185Z,14.90
2018-06-25T04:57:06.390Z,15.00
2018-06-25T04:57:40.288Z,15.00
2018-06-25T04:58:14.161Z,15.00
2018-06-25T04:58:48.009Z,15.00
2018-06-25T04:59:22.285Z,15.00
2018-06-25T04:59:56.130Z,15.10
2018-06-25T05:00:30.026Z,15.10
2018-06-25T05:01:03.981Z,15.10
2018-06-25T05:01:38.062Z,15.10
2018-06-25T05:02:11.998Z,15.20
2018-06-25T05:02:45.852Z,15.20
2018-06-25T05:03:19.710Z,15.20
2018-06-25T05:03:53.886Z,15.20
2018-06-25T05:04:28.076Z,15.20
2018-06-25T05:05:02.374Z,15.20
2018-06-25T05:05:36.274Z,15.30
2018-06-25T05:06:10.144Z,15.30
2018-06-25T05:06:44.440Z,15.30
2018-06-25T05:07:18.801Z,15.30
2018-06-25T05:07:52.651Z,15.30
2018-06-25T05:08:26.535Z,15.40
2018-06-25T05:09:00.418Z,15.40
2018-06-25T05:09:34.258Z,15.40
2018-06-25T05:10:08.109Z,15.40
2018-06-25T05:10:42.006Z,15.40
2018-06-25T05:11:16.225Z,15.40
2018-06-25T05:11:50.089Z,15.40
2018-06-25T05:12:23.955Z,15.50
2018-06-25T05:12:57.801Z,15.50
2018-06-25T05:13:31.653Z,15.50
2018-06-25T05:14:05.901Z,15.50
2018-06-25T05:14:39.804Z,15.50
2018-06-25T05:15:13.993Z,15.50
2018-06-25T05:15:47.862Z,15.50
2018-06-25T05:16:21.740Z,15.50
2018-06-25T05:16:55.925Z,15.60
2018-06-25T05:17:29.789Z,15.60
2018-06-25T05:18:03.664Z,15.60
2018-06-25T05:18:37.599Z,15.60
2018-06-25T05:19:11.847Z,15.60
2018-06-25T05:19:45.742Z,15.60
2018-06-25T05:20:20.026Z,15.60
2018-06-25T05:20:53.943Z,15.60
2018-06-25T05:21:27.865Z,15.70
2018-06-25T05:22:01.768Z,15.70
2018-06-25T05:22:35.661Z,15.70
2018-06-25T05:23:09.571Z,15.70
2018-06-25T05:24:17.315Z,15.70
2018-06-25T05:24:51.547Z,15.70
2018-06-25T05:25:25.385Z,15.70
2018-06-25T05:25:59.643Z,15.70
2018-06-25T05:26:33.942Z,15.70
2018-06-25T05:27:07.815Z,15.70
2018-06-25T05:27:42.039Z,15.70
2018-06-25T05:28:16.608Z,15.70
2018-06-25T05:28:50.524Z,15.70
2018-06-25T05:29:24.521Z,15.80
2018-06-25T05:29:58.766Z,15.80
2018-06-25T05:30:33.158Z,15.70
2018-06-25T05:31:07.427Z,15.80
2018-06-25T05:31:41.378Z,15.80
2018-06-25T05:32:15.298Z,15.80
2018-06-25T05:32:49.247Z,15.80
2018-06-25T05:33:23.153Z,15.80
2018-06-25T05:33:57.108Z,15.80
2018-06-25T05:34:31.088Z,15.80
2018-06-25T05:35:04.994Z,15.80
2018-06-25T05:35:38.922Z,15.80
2018-06-25T05:36:13.283Z,15.80
2018-06-25T05:36:47.895Z,15.80
2018-06-25T05:37:22.235Z,15.80
2018-06-25T05:37:56.832Z,15.80
2018-06-25T05:38:30.893Z,15.80
2018-06-25T05:39:08.592Z,15.90
2018-06-25T05:39:42.498Z,15.80
2018-06-25T05:40:16.698Z,15.90
2018-06-25T05:40:50.943Z,15.90
2018-06-25T05:41:25.197Z,15.90
2018-06-25T05:42:02.272Z,15.90
2018-06-25T05:42:36.581Z,15.90
2018-06-25T05:43:10.480Z,15.90
2018-06-25T05:43:44.407Z,15.90
2018-06-25T05:44:18.287Z,15.90
2018-06-25T05:44:53.056Z,16.00
2018-06-25T05:45:27.554Z,15.90
2018-06-25T05:46:01.494Z,15.90
2018-06-25T05:46:35.964Z,15.90
2018-06-25T05:47:09.982Z,15.90
2018-06-25T05:47:43.900Z,15.90
2018-06-25T05:48:17.858Z,15.90
2018-06-25T05:48:51.784Z,15.90
2018-06-25T05:49:25.882Z,16.00
2018-06-25T05:50:02.402Z,16.00
2018-06-25T05:50:36.862Z,16.00
2018-06-25T05:51:11.112Z,16.00
2018-06-25T05:51:45.428Z,16.00
2018-06-25T05:52:21.651Z,16.00
2018-06-25T05:52:55.529Z,16.00
2018-06-25T05:54:03.624Z,16.10
2018-06-25T05:54:37.580Z,16.10
2018-06-25T05:55:12.278Z,16.10
2018-06-25T05:55:46.146Z,16.10
2018-06-25T05:56:20.398Z,16.10
2018-06-25T05:56:54.301Z,16.10
2018-06-25T05:57:28.172Z,16.10
2018-06-25T05:58:02.038Z,16.10
2018-06-25T05:58:35.924Z,16.10
2018-06-25T05:59:10.111Z,16.10
2018-06-25T05:59:44.387Z,16.10
2018-06-25T06:00:23.136Z,16.10
2018-06-25T06:00:58.428Z,16.00
2018-06-25T06:01:33.238Z,16.10
2018-06-25T06:02:07.111Z,16.00
2018-06-25T06:02:41.448Z,16.00
2018-06-25T06:03:16.028Z,16.00
2018-06-25T06:03:52.708Z,16.00
2018-06-25T06:04:26.956Z,16.00
2018-06-25T06:05:00.944Z,16.10
2018-06-25T06:05:35.820Z,16.10
2018-06-25T06:06:10.074Z,16.10
2018-06-25T06:06:44.204Z,16.10
2018-06-25T06:07:18.106Z,16.10
2018-06-25T06:07:52.693Z,16.10
2018-06-25T06:08:26.573Z,16.10
2018-06-25T06:09:00.863Z,16.10
2018-06-25T06:09:34.930Z,16.00
2018-06-25T06:10:09.173Z,16.10
2018-06-25T06:10:43.774Z,16.10
2018-06-25T06:11:18.001Z,16.10
2018-06-25T06:11:51.877Z,16.10
2018-06-25T06:12:25.748Z,16.10
2018-06-25T06:12:59.575Z,16.10
2018-06-25T06:13:33.787Z,16.10
2018-06-25T06:14:08.001Z,16.10
2018-06-25T06:14:41.861Z,16.10
2018-06-25T06:15:15.720Z,16.20
2018-06-25T06:15:49.572Z,16.20
2018-06-25T06:16:23.512Z,16.20
2018-06-25T06:16:58.062Z,16.20
2018-06-25T06:18:06.299Z,16.20
2018-06-25T06:18:40.863Z,16.20
2018-06-25T06:19:14.883Z,16.20
2018-06-25T06:19:48.736Z,16.20
2018-06-25T06:20:22.670Z,16.20
2018-06-25T06:20:56.546Z,16.20
2018-06-25T06:21:30.494Z,16.20
2018-06-25T06:22:04.754Z,16.30
2018-06-25T06:22:38.994Z,16.30
2018-06-25T06:23:12.922Z,16.30
2018-06-25T06:23:46.850Z,16.30
2018-06-25T06:24:20.918Z,16.30
2018-06-25T06:24:55.124Z,16.30
2018-06-25T06:25:29.014Z,16.30
2018-06-25T06:26:03.265Z,16.30
2018-06-25T06:26:37.154Z,16.40
2018-06-25T06:27:11.370Z,16.40
2018-06-25T06:27:45.225Z,16.40
2018-06-25T06:28:19.100Z,16.40
2018-06-25T06:28:52.985Z,16.50
2018-06-25T06:29:26.856Z,16.50
2018-06-25T06:30:01.376Z,16.50
2018-06-25T06:30:35.620Z,16.50
2018-06-25T06:31:09.596Z,16.50
2018-06-25T06:31:43.496Z,16.50
2018-06-25T06:32:17.384Z,16.60
2018-06-25T06:32:51.280Z,16.50
2018-06-25T06:33:25.248Z,16.60
2018-06-25T06:33:59.246Z,16.50
2018-06-25T06:34:33.144Z,16.50
2018-06-25T06:35:07.065Z,16.60
2018-06-25T06:35:40.965Z,16.60
2018-06-25T06:36:14.850Z,16.60
2018-06-25T06:36:49.102Z,16.60
2018-06-25T06:37:22.970Z,16.70
2018-06-25T06:37:56.864Z,16.70
2018-06-25T06:38:30.761Z,16.70
2018-06-25T06:39:08.871Z,16.70
2018-06-25T06:39:42.775Z,16.80
2018-06-25T06:40:16.644Z,16.80
2018-06-25T06:40:50.538Z,16.70
2018-06-25T06:41:24.496Z,16.80
2018-06-25T06:41:58.799Z,16.80
2018-06-25T06:42:33.172Z,16.80
2018-06-25T06:43:07.054Z,16.80
2018-06-25T06:43:41.286Z,16.70
2018-06-25T06:44:15.518Z,16.80
2018-06-25T06:44:49.414Z,16.80
2018-06-25T06:45:25.051Z,16.80
2018-06-25T06:45:59.479Z,16.80
2018-06-25T06:46:33.746Z,16.80
2018-06-25T06:47:07.702Z,16.90
2018-06-25T06:47:41.680Z,16.80
2018-06-25T06:48:15.902Z,16.90
2018-06-25T06:48:50.188Z,16.90
2018-06-25T06:49:25.891Z,16.90
2018-06-25T06:49:59.780Z,16.90
2018-06-25T06:50:33.662Z,16.90
2018-06-25T06:51:07.578Z,17.00
2018-06-25T06:51:41.542Z,17.00
2018-06-25T06:52:15.497Z,17.00
2018-06-25T06:52:49.406Z,17.00
2018-06-25T06:53:23.289Z,17.00
2018-06-25T06:53:57.512Z,17.10
2018-06-25T06:54:31.756Z,17.10
2018-06-25T06:55:05.965Z,17.00
2018-06-25T06:55:39.852Z,17.10
2018-06-25T06:56:13.770Z,17.10
2018-06-25T06:57:21.286Z,17.10
2018-06-25T06:57:55.160Z,17.10
2018-06-25T06:59:02.639Z,17.20
2018-06-25T07:00:10.115Z,17.20
2018-06-25T07:01:17.618Z,17.30
2018-06-25T07:01:51.544Z,17.30
2018-06-25T07:02:25.837Z,17.30
2018-06-25T07:02:59.804Z,17.30
2018-06-25T07:04:41.257Z,17.30
2018-06-25T07:05:15.305Z,17.30
2018-06-25T07:05:49.250Z,17.30
2018-06-25T07:06:23.512Z,17.40
2018-06-25T07:06:57.796Z,17.40
2018-06-25T07:07:31.831Z,17.40
2018-06-25T07:08:05.808Z,17.40
2018-06-25T07:08:39.828Z,17.30
2018-06-25T07:09:14.455Z,17.30
2018-06-25T07:09:48.390Z,17.30
2018-06-25T07:10:22.394Z,17.20
2018-06-25T07:10:57.136Z,17.20
2018-06-25T07:11:31.069Z,17.20
2018-06-25T07:12:04.986Z,17.20
2018-06-25T07:12:38.883Z,17.20
2018-06-25T07:13:46.845Z,17.20
2018-06-25T07:14:21.081Z,17.30
2018-06-25T07:14:55.289Z,17.30
2018-06-25T07:15:29.243Z,17.30
2018-06-25T07:16:03.812Z,17.40
2018-06-25T07:16:38.578Z,17.40
2018-06-25T07:18:16.641Z,17.40
2018-06-25T07:18:50.494Z,17.40
2018-06-25T07:19:24.721Z,17.60
2018-06-25T07:19:58.643Z,17.60
2018-06-25T07:20:32.553Z,17.70
2018-06-25T07:21:06.805Z,17.70
2018-06-25T07:21:40.707Z,17.80
2018-06-25T07:22:14.937Z,17.80
2018-06-25T07:22:48.863Z,17.90
2018-06-25T07:23:24.186Z,17.90
2018-06-25T07:23:58.105Z,17.90
2018-06-25T07:25:05.926Z,18.10
2018-06-25T07:25:40.179Z,18.10
2018-06-25T07:26:19.323Z,18.20
2018-06-25T07:26:53.567Z,18.20
2018-06-25T07:27:27.483Z,18.20
2018-06-25T07:28:01.794Z,18.20
2018-06-25T07:28:35.763Z,18.20
2018-06-25T07:29:09.755Z,18.20
2018-06-25T07:29:43.863Z,18.20
2018-06-25T07:30:17.783Z,18.20
2018-06-25T07:30:51.677Z,18.20
2018-06-25T07:31:25.645Z,18.30
2018-06-25T07:31:59.578Z,18.30
2018-06-25T07:32:33.569Z,18.30
2018-06-25T07:33:07.505Z,18.30
2018-06-25T07:33:41.792Z,18.40
2018-06-25T07:34:15.705Z,18.40
2018-06-25T07:34:49.634Z,18.40